Lacey, Washington
Current Conditions -  °F | °C
As of 8:54 AM on Sunday 21 Dec 2014 (Local Time) from KOLM Reporting Station
Broken Clouds Broken Clouds  
Wind Chill: 51°   Ceiling: 4500
Heat Index: 51°   Visibility: 10mi
Dew Point: 46°   Wind: 7mph
Humidity: 83%   Direction: 200°SSW
Pressure: 29.93"   Gusts: NA
Location:  47.04°N, 122.82°W
Report Text: KOLM 211654Z 20006KT 10SM FEW020 SCT032 BKN045 11/08 A2993 RMK AO2 SLP135 T01060078
Loading
Personal Weather Stations






























Interactive Weather Map New forecast layout! Learn more

10-Day Weather Forecast

Advertisements
Track Severe Weather on mobile